createdAt,value
2022-10-18T00:00:02.910Z,25.83
2022-10-18T00:02:29.468Z,24.23
2022-10-18T00:04:56.008Z,22.43
2022-10-18T00:07:22.580Z,27.10
2022-10-18T00:09:49.123Z,23.10
2022-10-18T00:12:15.735Z,22.23
2022-10-18T00:14:42.403Z,26.90
2022-10-18T00:17:09.001Z,24.47
2022-10-18T00:19:35.590Z,23.37
2022-10-18T00:22:02.125Z,24.23
2022-10-18T00:24:28.700Z,22.80
2022-10-18T00:26:55.261Z,22.50
2022-10-18T00:29:22.035Z,25.43
2022-10-18T00:31:48.687Z,25.37
2022-10-18T00:34:16.622Z,24.33
2022-10-18T00:36:44.550Z,29.30
2022-10-18T00:39:21.241Z,28.67
2022-10-18T00:41:48.465Z,27.10
2022-10-18T00:44:14.980Z,31.53
2022-10-18T00:46:44.684Z,28.27
2022-10-18T00:49:17.062Z,27.17
2022-10-18T00:51:50.387Z,29.03
2022-10-18T00:54:19.245Z,30.70
2022-10-18T00:56:46.218Z,28.00
2022-10-18T00:59:15.293Z,33.40
2022-10-18T01:01:42.142Z,32.33
2022-10-18T01:04:08.829Z,30.17
2022-10-18T01:09:31.929Z,29.57
2022-10-18T01:12:30.027Z,31.40
2022-10-18T01:15:25.653Z,30.50
2022-10-18T01:18:19.898Z,34.00
2022-10-18T01:21:01.690Z,32.43
2022-10-18T01:24:06.083Z,31.83
2022-10-18T01:26:59.834Z,30.50
2022-10-18T01:29:36.822Z,32.73
2022-10-18T01:32:08.835Z,32.80
2022-10-18T01:34:38.739Z,34.10
2022-10-18T01:37:09.364Z,29.17
2022-10-18T01:39:38.766Z,33.77
2022-10-18T01:42:09.754Z,37.37
2022-10-18T01:44:38.984Z,42.57
2022-10-18T01:47:07.532Z,34.77
2022-10-18T01:49:34.373Z,39.57
2022-10-18T01:52:01.185Z,37.93
2022-10-18T01:54:39.547Z,41.23
2022-10-18T01:57:18.272Z,41.80
2022-10-18T01:59:57.921Z,38.90
2022-10-18T02:03:01.334Z,39.70
2022-10-18T02:05:56.804Z,42.43
2022-10-18T02:08:34.956Z,40.50
2022-10-18T02:11:13.765Z,38.93
2022-10-18T02:13:48.532Z,41.73
2022-10-18T02:16:38.766Z,36.87
2022-10-18T02:19:29.489Z,43.17
2022-10-18T02:21:58.346Z,38.77
2022-10-18T02:24:31.566Z,36.83
2022-10-18T02:26:58.157Z,35.90
2022-10-18T02:29:25.154Z,30.73
2022-10-18T02:32:02.624Z,33.40
2022-10-18T02:34:35.734Z,36.60
2022-10-18T02:37:02.992Z,37.23
2022-10-18T02:39:33.993Z,34.20
2022-10-18T02:42:01.151Z,34.77
2022-10-18T02:44:27.699Z,37.43
2022-10-18T02:46:54.435Z,40.67
2022-10-18T02:49:21.113Z,36.90
2022-10-18T02:51:47.646Z,40.03
2022-10-18T02:54:14.175Z,39.17
2022-10-18T02:56:40.842Z,39.63
2022-10-18T02:59:08.115Z,43.73
2022-10-18T03:01:36.169Z,39.13
2022-10-18T03:04:03.938Z,37.73
2022-10-18T03:06:31.129Z,38.77
2022-10-18T03:08:57.826Z,43.57
2022-10-18T03:11:24.435Z,38.17
2022-10-18T03:13:51.037Z,42.80
2022-10-18T03:16:17.881Z,39.20
2022-10-18T03:18:44.568Z,46.70
2022-10-18T03:21:11.301Z,47.60
2022-10-18T03:23:37.869Z,42.47
2022-10-18T03:26:04.549Z,44.93
2022-10-18T03:28:31.183Z,47.17
2022-10-18T03:31:02.134Z,42.17
2022-10-18T03:33:29.080Z,40.97
2022-10-18T03:35:55.682Z,42.50
2022-10-18T03:38:22.494Z,40.50
2022-10-18T03:40:49.095Z,42.43
2022-10-18T03:43:15.707Z,36.87
2022-10-18T03:45:42.444Z,41.07
2022-10-18T03:48:09.075Z,41.87
2022-10-18T03:50:35.643Z,38.13
2022-10-18T03:53:02.221Z,45.83
2022-10-18T03:55:28.761Z,39.03
2022-10-18T03:57:55.292Z,43.30
2022-10-18T04:00:22.648Z,44.50
2022-10-18T04:02:53.321Z,37.33
2022-10-18T04:05:23.957Z,45.27
2022-10-18T04:07:50.750Z,42.23
2022-10-18T04:10:18.554Z,39.40
2022-10-18T04:12:45.171Z,41.47
2022-10-18T04:15:11.907Z,45.80
2022-10-18T04:17:38.435Z,44.57
2022-10-18T04:20:05.448Z,44.80
2022-10-18T04:22:31.983Z,43.87
2022-10-18T04:24:58.593Z,43.37
2022-10-18T04:27:25.708Z,51.27
2022-10-18T04:29:52.545Z,50.67
2022-10-18T04:32:19.091Z,54.30
2022-10-18T04:34:45.649Z,48.60
2022-10-18T04:37:12.200Z,55.70
2022-10-18T04:39:38.890Z,52.50
2022-10-18T04:42:05.441Z,50.53
2022-10-18T04:44:32.005Z,55.70
2022-10-18T04:46:58.533Z,53.83
2022-10-18T04:49:25.106Z,62.53
2022-10-18T04:51:51.908Z,56.67
2022-10-18T04:54:18.666Z,56.30
2022-10-18T04:56:45.437Z,53.53
2022-10-18T04:59:12.051Z,59.53
2022-10-18T05:01:38.618Z,55.27
2022-10-18T05:04:05.310Z,64.57
2022-10-18T05:06:32.037Z,60.37
2022-10-18T05:08:58.569Z,62.33
2022-10-18T05:11:25.122Z,73.60
2022-10-18T05:13:52.134Z,77.87
2022-10-18T05:16:18.733Z,58.90
2022-10-18T05:18:45.530Z,59.57
2022-10-18T05:21:13.202Z,63.40
2022-10-18T05:23:40.119Z,56.73
2022-10-18T05:26:07.659Z,65.37
2022-10-18T05:28:39.585Z,62.03
2022-10-18T05:31:08.458Z,66.57
2022-10-18T05:33:35.303Z,74.17
2022-10-18T05:36:02.380Z,69.80
2022-10-18T05:38:31.049Z,76.93
2022-10-18T05:40:58.978Z,76.90
2022-10-18T05:43:28.943Z,84.43
2022-10-18T05:45:56.020Z,74.13
2022-10-18T05:48:22.916Z,80.27
2022-10-18T05:50:49.442Z,80.33
2022-10-18T05:53:35.708Z,88.97
2022-10-18T05:56:03.325Z,92.30
2022-10-18T05:58:29.961Z,99.30
2022-10-18T06:00:59.781Z,112.83
2022-10-18T06:03:27.627Z,149.67
2022-10-18T06:06:08.608Z,119.73
2022-10-18T06:08:36.312Z,112.10
2022-10-18T06:11:07.834Z,117.93
2022-10-18T06:13:34.466Z,127.63
2022-10-18T06:16:01.004Z,110.87
2022-10-18T06:18:27.641Z,139.73
2022-10-18T06:20:58.896Z,147.73
2022-10-18T06:23:27.193Z,138.43
2022-10-18T06:25:54.274Z,138.23
2022-10-18T06:28:20.861Z,154.50
2022-10-18T06:30:47.403Z,144.40
2022-10-18T06:33:14.171Z,141.10
2022-10-18T06:35:40.738Z,151.00
2022-10-18T06:38:07.564Z,150.23
2022-10-18T06:40:38.014Z,139.40
2022-10-18T06:43:20.065Z,145.27
2022-10-18T06:45:47.559Z,121.50
2022-10-18T06:48:14.133Z,120.40
2022-10-18T06:50:40.829Z,114.87
2022-10-18T06:53:08.908Z,121.57
2022-10-18T06:55:35.931Z,102.13
2022-10-18T06:58:02.656Z,105.93
2022-10-18T07:00:29.403Z,104.87
2022-10-18T07:02:57.139Z,110.40
2022-10-18T07:05:23.750Z,115.60
2022-10-18T07:07:54.224Z,120.60
2022-10-18T07:10:23.662Z,118.90
2022-10-18T07:12:51.610Z,119.17
2022-10-18T07:15:22.721Z,135.07
2022-10-18T07:17:49.395Z,125.13
2022-10-18T07:20:16.423Z,119.93
2022-10-18T07:22:43.153Z,111.07
2022-10-18T07:25:09.833Z,107.67
2022-10-18T07:27:41.574Z,120.80
2022-10-18T07:30:10.298Z,104.63
2022-10-18T07:32:37.079Z,112.60
2022-10-18T07:35:04.067Z,108.10
2022-10-18T07:37:30.749Z,105.27
2022-10-18T07:39:57.297Z,123.73
2022-10-18T07:42:23.874Z,122.70
2022-10-18T07:44:50.599Z,146.27
2022-10-18T07:47:17.200Z,133.37
2022-10-18T07:49:43.967Z,137.80
2022-10-18T07:52:10.906Z,145.67
2022-10-18T07:54:37.512Z,140.67
2022-10-18T07:57:05.020Z,130.73
2022-10-18T07:59:31.560Z,124.57
2022-10-18T08:01:58.167Z,120.57
2022-10-18T08:04:24.781Z,113.27
2022-10-18T08:06:51.391Z,97.53
2022-10-18T08:09:17.942Z,93.53
2022-10-18T08:11:44.486Z,103.47
2022-10-18T08:14:11.014Z,92.43
2022-10-18T08:16:37.771Z,87.63
2022-10-18T08:19:04.383Z,85.33
2022-10-18T08:21:31.202Z,83.17
2022-10-18T08:23:57.769Z,92.33
2022-10-18T08:26:24.447Z,75.10
2022-10-18T08:29:10.395Z,77.73
2022-10-18T08:31:37.964Z,79.00
2022-10-18T08:34:04.489Z,72.87
2022-10-18T08:36:31.046Z,79.83
2022-10-18T08:38:57.721Z,75.50
2022-10-18T08:42:00.029Z,74.77
2022-10-18T08:44:33.228Z,66.70
2022-10-18T08:47:04.430Z,62.13
2022-10-18T08:50:12.675Z,61.47
2022-10-18T08:52:51.043Z,62.53
2022-10-18T08:55:38.138Z,63.30
2022-10-18T08:58:20.254Z,55.47
2022-10-18T09:00:57.810Z,60.30
2022-10-18T09:03:38.550Z,49.13
2022-10-18T09:06:32.673Z,57.43
2022-10-18T09:09:27.206Z,57.43
2022-10-18T09:12:13.117Z,62.17
2022-10-18T09:14:47.049Z,61.83
2022-10-18T09:17:40.658Z,64.00
2022-10-18T09:20:10.013Z,64.57
2022-10-18T09:22:36.515Z,63.00
2022-10-18T09:25:24.210Z,63.17
2022-10-18T09:27:56.274Z,55.50
2022-10-18T09:30:44.474Z,58.53
2022-10-18T09:33:39.114Z,59.10
2022-10-18T09:36:11.112Z,52.03
2022-10-18T09:38:46.301Z,58.10
2022-10-18T09:41:30.135Z,58.87
2022-10-18T09:44:18.522Z,53.93
2022-10-18T09:46:55.182Z,51.80
2022-10-18T09:49:26.093Z,54.17
2022-10-18T09:51:53.927Z,54.60
2022-10-18T09:54:41.901Z,58.13
2022-10-18T09:57:14.955Z,59.00
2022-10-18T09:59:49.565Z,80.20
2022-10-18T10:02:22.203Z,85.87
2022-10-18T10:04:54.089Z,73.53
2022-10-18T10:07:32.584Z,84.03
2022-10-18T10:10:16.201Z,66.77
2022-10-18T10:12:43.922Z,75.00
2022-10-18T10:15:16.899Z,71.40
2022-10-18T10:17:44.099Z,76.63
2022-10-18T10:20:22.877Z,82.53
2022-10-18T10:22:50.757Z,79.77
2022-10-18T10:25:32.736Z,76.77
2022-10-18T10:28:14.261Z,89.53
2022-10-18T10:30:40.843Z,74.10
2022-10-18T10:33:37.610Z,72.20
2022-10-18T10:36:15.531Z,53.57
2022-10-18T10:38:42.193Z,60.30
2022-10-18T10:41:20.720Z,79.27
2022-10-18T10:43:48.347Z,70.40
2022-10-18T10:46:19.411Z,65.87
2022-10-18T10:49:00.605Z,56.53
2022-10-18T10:51:40.208Z,55.27
2022-10-18T10:54:20.642Z,49.93
2022-10-18T10:57:02.162Z,52.53
2022-10-18T10:59:42.432Z,51.77
2022-10-18T11:02:15.231Z,52.57
2022-10-18T11:04:43.109Z,53.23
2022-10-18T11:07:09.597Z,63.07
2022-10-18T11:09:56.456Z,46.53
2022-10-18T11:12:43.167Z,44.27
2022-10-18T11:15:28.637Z,44.23
2022-10-18T11:18:19.277Z,36.77
2022-10-18T11:21:08.038Z,39.80
2022-10-18T11:23:37.311Z,29.13
2022-10-18T11:26:12.831Z,33.67
2022-10-18T11:28:56.583Z,35.30
2022-10-18T11:31:41.320Z,32.03
2022-10-18T11:34:52.681Z,30.52
2022-10-18T11:38:00.357Z,26.85
2022-10-18T11:40:38.777Z,30.33
2022-10-18T11:43:57.152Z,26.90
2022-10-18T11:46:54.095Z,27.15
2022-10-18T11:49:39.451Z,27.65
2022-10-18T11:52:15.863Z,24.02
2022-10-18T11:54:48.538Z,25.85
2022-10-18T11:57:27.370Z,25.95
2022-10-18T12:00:20.964Z,29.55
2022-10-18T12:03:20.026Z,25.88
2022-10-18T12:05:49.394Z,21.67
2022-10-18T12:08:30.929Z,21.10
2022-10-18T12:11:05.565Z,22.80
2022-10-18T12:13:45.594Z,22.67
2022-10-18T12:16:12.900Z,23.63
2022-10-18T12:18:49.812Z,22.95
2022-10-18T12:21:25.304Z,22.52
2022-10-18T12:24:22.769Z,25.05
2022-10-18T12:26:53.990Z,19.27
2022-10-18T12:29:50.378Z,24.52
2022-10-18T12:32:24.593Z,22.38
2022-10-18T12:35:06.577Z,25.20
2022-10-18T12:37:53.778Z,24.30
2022-10-18T12:40:30.981Z,24.75
2022-10-18T12:42:57.789Z,22.40
2022-10-18T12:45:33.143Z,19.95
2022-10-18T12:48:01.894Z,21.17
2022-10-18T12:50:39.091Z,24.27
2022-10-18T12:53:05.635Z,20.55
2022-10-18T12:55:39.018Z,21.02
2022-10-18T12:58:14.590Z,21.10
2022-10-18T13:00:41.586Z,21.77
2022-10-18T13:03:31.062Z,16.05
2022-10-18T13:06:01.680Z,18.85
2022-10-18T13:08:31.438Z,19.75
2022-10-18T13:11:10.327Z,19.02
2022-10-18T13:13:52.159Z,18.77
2022-10-18T13:16:24.271Z,19.48
2022-10-18T13:18:53.805Z,18.90
2022-10-18T13:21:26.590Z,19.38
2022-10-18T13:24:10.253Z,20.63
2022-10-18T13:27:31.355Z,21.48
2022-10-18T13:30:29.314Z,21.98
2022-10-18T13:33:19.351Z,23.38
2022-10-18T13:36:23.034Z,18.58
2022-10-18T13:38:57.536Z,19.02
2022-10-18T13:41:28.340Z,18.48
2022-10-18T13:43:56.775Z,17.08
2022-10-18T13:46:24.682Z,22.77
2022-10-18T13:48:53.471Z,20.02
2022-10-18T13:52:11.069Z,19.73
2022-10-18T13:54:42.603Z,21.20
2022-10-18T13:57:17.941Z,17.85
2022-10-18T14:00:03.663Z,20.92
2022-10-18T14:02:59.662Z,19.55
2022-10-18T14:05:29.573Z,17.15
2022-10-18T14:08:09.504Z,16.02
2022-10-18T14:11:03.018Z,18.80
2022-10-18T14:13:47.151Z,18.63
2022-10-18T14:16:38.634Z,22.05
2022-10-18T14:19:21.789Z,14.63
2022-10-18T14:22:14.955Z,17.02
2022-10-18T14:24:46.085Z,14.27
2022-10-18T14:27:21.665Z,13.93
2022-10-18T14:29:50.008Z,18.10
2022-10-18T14:32:27.825Z,18.35
2022-10-18T14:35:09.207Z,19.70
2022-10-18T14:37:41.676Z,17.67
2022-10-18T14:40:25.798Z,15.30
2022-10-18T14:42:52.460Z,22.02
2022-10-18T14:45:20.983Z,23.50
2022-10-18T14:47:47.872Z,16.40
2022-10-18T14:50:22.595Z,17.48
2022-10-18T14:52:49.568Z,24.67
2022-10-18T14:55:24.498Z,21.35
2022-10-18T14:57:51.227Z,22.50
2022-10-18T15:00:30.401Z,16.90
2022-10-18T15:02:56.955Z,16.88
2022-10-18T15:05:26.075Z,19.70
2022-10-18T15:07:53.821Z,17.00
2022-10-18T15:10:25.423Z,15.98
2022-10-18T15:13:10.221Z,15.40
2022-10-18T15:15:38.320Z,17.15
2022-10-18T15:18:06.782Z,20.02
2022-10-18T15:20:39.389Z,17.27
2022-10-18T15:23:27.093Z,19.73
2022-10-18T15:26:02.417Z,21.88
2022-10-18T15:28:40.456Z,20.00
2022-10-18T15:31:22.413Z,18.55
2022-10-18T15:33:48.991Z,24.63
2022-10-18T15:36:31.029Z,19.45
2022-10-18T15:39:13.198Z,19.73
2022-10-18T15:41:48.898Z,17.73
2022-10-18T15:44:46.362Z,18.42
2022-10-18T15:47:13.109Z,21.50
2022-10-18T15:49:45.878Z,21.30
2022-10-18T15:52:21.753Z,25.08
2022-10-18T15:57:20.397Z,23.83
2022-10-18T15:59:52.924Z,15.52
2022-10-18T16:02:20.368Z,21.20
2022-10-18T16:04:47.812Z,26.90
2022-10-18T16:07:14.338Z,20.30
2022-10-18T16:09:41.066Z,20.58
2022-10-18T16:12:07.609Z,22.10
2022-10-18T16:14:34.998Z,26.25
2022-10-18T16:17:05.581Z,20.73
2022-10-18T16:19:33.443Z,23.80
2022-10-18T16:22:05.959Z,27.10
2022-10-18T16:24:33.070Z,28.17
2022-10-18T16:26:59.626Z,27.65
2022-10-18T16:29:28.558Z,22.65
2022-10-18T16:31:58.378Z,26.48
2022-10-18T16:34:28.978Z,26.75
2022-10-18T16:36:55.890Z,28.40
2022-10-18T16:39:23.117Z,24.43
2022-10-18T16:41:49.801Z,31.20
2022-10-18T16:44:17.270Z,27.20
2022-10-18T16:46:44.027Z,30.33
2022-10-18T16:51:53.306Z,28.87
2022-10-18T16:54:19.962Z,32.93
2022-10-18T16:56:47.954Z,26.97
2022-10-18T16:59:24.048Z,30.07
2022-10-18T17:01:50.626Z,31.93
2022-10-18T17:04:17.397Z,34.63
2022-10-18T17:06:44.079Z,35.50
2022-10-18T17:09:14.003Z,34.30
2022-10-18T17:11:41.004Z,32.37
2022-10-18T17:14:07.580Z,32.33
2022-10-18T17:16:36.618Z,39.50
2022-10-18T17:19:05.770Z,44.77
2022-10-18T17:21:33.427Z,40.63
2022-10-18T17:24:02.889Z,34.57
2022-10-18T17:26:30.522Z,37.17
2022-10-18T17:29:06.337Z,43.23
2022-10-18T17:31:33.278Z,44.27
2022-10-18T17:34:01.501Z,57.57
2022-10-18T17:36:28.634Z,51.73
2022-10-18T17:38:55.457Z,58.67
2022-10-18T17:41:22.720Z,61.00
2022-10-18T17:43:49.463Z,52.70
2022-10-18T17:46:17.900Z,51.50
2022-10-18T17:48:45.215Z,68.17
2022-10-18T17:51:14.235Z,74.27
2022-10-18T17:53:40.851Z,73.43
2022-10-18T17:56:07.884Z,72.77
2022-10-18T17:58:34.824Z,81.10
2022-10-18T18:01:23.051Z,79.23
2022-10-18T18:03:50.418Z,80.57
2022-10-18T18:06:31.087Z,79.07
2022-10-18T18:08:58.698Z,75.07
2022-10-18T18:11:25.685Z,76.73
2022-10-18T18:13:54.091Z,77.57
2022-10-18T18:16:23.174Z,88.40
2022-10-18T18:18:52.230Z,77.23
2022-10-18T18:21:19.945Z,72.63
2022-10-18T18:23:47.408Z,85.87
2022-10-18T18:26:14.655Z,85.70
2022-10-18T18:28:41.646Z,83.20
2022-10-18T18:31:11.396Z,93.73
2022-10-18T18:33:38.641Z,90.97
2022-10-18T18:36:07.097Z,74.20
2022-10-18T18:38:35.381Z,93.50
2022-10-18T18:41:32.098Z,90.10
2022-10-18T18:44:04.294Z,104.27
2022-10-18T18:46:36.459Z,114.17
2022-10-18T18:49:03.500Z,117.43
2022-10-18T18:51:30.095Z,122.07
2022-10-18T18:53:56.638Z,118.37
2022-10-18T18:56:25.283Z,118.03
2022-10-18T18:58:53.006Z,104.40
2022-10-18T19:01:25.225Z,117.47
2022-10-18T19:03:53.323Z,131.67
2022-10-18T19:06:25.938Z,106.73
2022-10-18T19:08:54.810Z,108.07
2022-10-18T19:11:22.727Z,107.20
2022-10-18T19:13:49.999Z,121.53
2022-10-18T19:16:24.586Z,119.37
2022-10-18T19:19:06.265Z,124.23
2022-10-18T19:21:38.422Z,107.57
2022-10-18T19:24:06.603Z,126.60
2022-10-18T19:26:48.405Z,119.57
2022-10-18T19:29:37.025Z,109.33
2022-10-18T19:32:07.306Z,106.00
2022-10-18T19:34:34.550Z,114.07
2022-10-18T19:37:01.147Z,106.73
2022-10-18T19:39:30.618Z,100.33
2022-10-18T19:41:59.154Z,102.50
2022-10-18T19:44:29.334Z,112.63
2022-10-18T19:46:56.846Z,111.43
2022-10-18T19:49:23.464Z,115.73
2022-10-18T19:51:50.036Z,89.03
2022-10-18T19:54:16.908Z,90.33
2022-10-18T19:56:44.028Z,106.23
2022-10-18T19:59:13.193Z,95.83
2022-10-18T20:01:40.082Z,92.73
2022-10-18T20:04:08.298Z,119.30
2022-10-18T20:06:36.886Z,127.97
2022-10-18T20:09:05.061Z,127.37
2022-10-18T20:11:31.785Z,144.77
2022-10-18T20:13:59.636Z,118.97
2022-10-18T20:16:29.393Z,116.67
2022-10-18T20:18:58.265Z,115.57
2022-10-18T20:21:26.225Z,130.67
2022-10-18T20:23:53.100Z,129.97
2022-10-18T20:26:20.948Z,95.03
2022-10-18T20:28:56.297Z,115.70
2022-10-18T20:31:25.214Z,115.97
2022-10-18T20:34:00.431Z,107.23
2022-10-18T20:36:28.873Z,106.10
2022-10-18T20:38:55.613Z,117.20
2022-10-18T20:41:31.016Z,124.13
2022-10-18T20:44:03.484Z,124.03
2022-10-18T20:46:32.063Z,107.10
2022-10-18T20:48:58.889Z,100.10
2022-10-18T20:51:25.834Z,104.30
2022-10-18T20:53:53.383Z,96.07
2022-10-18T20:56:22.244Z,80.90
2022-10-18T20:58:55.291Z,88.00
2022-10-18T21:01:32.716Z,87.97
2022-10-18T21:04:02.168Z,99.33
2022-10-18T21:06:30.925Z,90.37
2022-10-18T21:09:03.460Z,80.50
2022-10-18T21:11:31.195Z,83.30
2022-10-18T21:14:02.405Z,77.57
2022-10-18T21:16:30.753Z,67.60
2022-10-18T21:19:05.423Z,95.70
2022-10-18T21:21:32.256Z,83.80
2022-10-18T21:24:02.442Z,82.10
2022-10-18T21:26:32.018Z,76.40
2022-10-18T21:28:59.355Z,68.40
2022-10-18T21:31:28.607Z,79.67
2022-10-18T21:33:58.040Z,67.77
2022-10-18T21:36:25.533Z,61.27
2022-10-18T21:38:52.387Z,51.30
2022-10-18T21:41:20.423Z,54.30
2022-10-18T21:43:49.748Z,44.27
2022-10-18T21:46:18.276Z,53.33
2022-10-18T21:48:47.063Z,55.63
2022-10-18T21:51:15.899Z,49.87
2022-10-18T21:53:46.006Z,45.07
2022-10-18T21:56:20.489Z,41.57
2022-10-18T21:58:47.205Z,41.17
2022-10-18T22:01:16.639Z,44.40
2022-10-18T22:03:44.959Z,40.00
2022-10-18T22:06:14.600Z,45.37
2022-10-18T22:08:55.330Z,37.23
2022-10-18T22:11:24.893Z,41.27
2022-10-18T22:13:52.673Z,41.70
2022-10-18T22:16:19.439Z,44.37
2022-10-18T22:18:47.041Z,35.47
2022-10-18T22:21:15.874Z,42.73
2022-10-18T22:23:44.930Z,37.57
2022-10-18T22:26:21.485Z,34.17
2022-10-18T22:28:53.454Z,43.23
2022-10-18T22:31:22.386Z,33.47
2022-10-18T22:33:57.335Z,32.17
2022-10-18T22:36:25.044Z,38.30
2022-10-18T22:38:52.198Z,39.27
2022-10-18T22:41:19.285Z,36.90
2022-10-18T22:43:47.589Z,34.13
2022-10-18T22:46:15.440Z,44.97
2022-10-18T22:48:42.764Z,43.20
2022-10-18T22:51:09.518Z,41.70
2022-10-18T22:53:37.515Z,43.03
2022-10-18T22:56:05.183Z,50.37
2022-10-18T22:58:32.483Z,45.30
2022-10-18T23:01:15.181Z,40.43
2022-10-18T23:03:42.362Z,37.67
2022-10-18T23:06:39.298Z,36.83
2022-10-18T23:09:08.099Z,39.07
2022-10-18T23:11:35.921Z,49.73
2022-10-18T23:14:03.918Z,41.27
2022-10-18T23:16:30.582Z,50.97
2022-10-18T23:18:59.275Z,49.10
2022-10-18T23:21:28.055Z,39.20
2022-10-18T23:23:55.829Z,44.70
2022-10-18T23:26:25.706Z,54.30
2022-10-18T23:28:53.644Z,38.73
2022-10-18T23:31:26.369Z,36.07
2022-10-18T23:33:55.017Z,44.23
2022-10-18T23:36:22.649Z,36.33
2022-10-18T23:38:49.325Z,46.20
2022-10-18T23:41:16.527Z,43.73
2022-10-18T23:43:44.046Z,54.93
2022-10-18T23:46:11.228Z,51.03
2022-10-18T23:48:38.102Z,52.40
2022-10-18T23:51:05.411Z,44.23
2022-10-18T23:53:32.031Z,49.20
2022-10-18T23:56:01.533Z,47.87
2022-10-18T23:58:30.043Z,40.90
